sensor_id;sensor_type;location;lat;lon;timestamp;pressure;altitude;pressure_sealevel;temperature;humidity
70930;BME280;58588;48.102;19.682;2023-03-26T00:02:43;98790.91;;;7.58;100.00
70930;BME280;58588;48.102;19.682;2023-03-26T00:05:45;98787.66;;;7.47;100.00
70930;BME280;58588;48.102;19.682;2023-03-26T00:08:48;98782.84;;;7.43;100.00
70930;BME280;58588;48.102;19.682;2023-03-26T00:11:52;98785.06;;;7.39;100.00
70930;BME280;58588;48.102;19.682;2023-03-26T00:14:55;98787.25;;;7.36;100.00
70930;BME280;58588;48.102;19.682;2023-03-26T00:17:57;98786.72;;;7.40;100.00
70930;BME280;58588;48.102;19.682;2023-03-26T00:21:01;98789.31;;;7.34;100.00
70930;BME280;58588;48.102;19.682;2023-03-26T00:24:06;98784.69;;;7.28;100.00
70930;BME280;58588;48.102;19.682;2023-03-26T00:27:10;98779.66;;;7.24;100.00
70930;BME280;58588;48.102;19.682;2023-03-26T00:30:12;98775.31;;;7.23;100.00
70930;BME280;58588;48.102;19.682;2023-03-26T00:33:15;98783.75;;;7.20;100.00
70930;BME280;58588;48.102;19.682;2023-03-26T00:36:22;98776.81;;;7.26;100.00
70930;BME280;58588;48.102;19.682;2023-03-26T00:39:25;98776.53;;;7.21;100.00
70930;BME280;58588;48.102;19.682;2023-03-26T00:42:30;98778.47;;;7.27;100.00
70930;BME280;58588;48.102;19.682;2023-03-26T00:45:33;98777.19;;;7.23;100.00
70930;BME280;58588;48.102;19.682;2023-03-26T00:48:35;98779.41;;;7.34;100.00
70930;BME280;58588;48.102;19.682;2023-03-26T00:51:39;98768.59;;;7.28;100.00
70930;BME280;58588;48.102;19.682;2023-03-26T00:54:41;98767.28;;;7.23;100.00
70930;BME280;58588;48.102;19.682;2023-03-26T00:57:45;98761.91;;;7.23;100.00
70930;BME280;58588;48.102;19.682;2023-03-26T01:00:51;98767.72;;;7.12;100.00
70930;BME280;58588;48.102;19.682;2023-03-26T01:03:58;98766.06;;;7.11;100.00
70930;BME280;58588;48.102;19.682;2023-03-26T01:07:22;98770.81;;;7.01;100.00
70930;BME280;58588;48.102;19.682;2023-03-26T01:10:28;98779.13;;;6.91;100.00
70930;BME280;58588;48.102;19.682;2023-03-26T01:13:41;98783.81;;;6.89;100.00
70930;BME280;58588;48.102;19.682;2023-03-26T01:16:48;98779.06;;;6.77;100.00
70930;BME280;58588;48.102;19.682;2023-03-26T01:19:55;98781.09;;;6.75;100.00
70930;BME280;58588;48.102;19.682;2023-03-26T01:23:01;98785.97;;;6.71;100.00
70930;BME280;58588;48.102;19.682;2023-03-26T01:26:11;98784.13;;;6.71;100.00
70930;BME280;58588;48.102;19.682;2023-03-26T01:29:27;98785.69;;;6.66;100.00
70930;BME280;58588;48.102;19.682;2023-03-26T01:32:39;98795.31;;;6.52;100.00
70930;BME280;58588;48.102;19.682;2023-03-26T01:35:45;98790.31;;;6.49;100.00
70930;BME280;58588;48.102;19.682;2023-03-26T01:38:55;98784.28;;;6.47;100.00
70930;BME280;58588;48.102;19.682;2023-03-26T01:42:03;98781.38;;;6.34;100.00
70930;BME280;58588;48.102;19.682;2023-03-26T01:45:11;98773.59;;;6.24;100.00
70930;BME280;58588;48.102;19.682;2023-03-26T01:48:15;98784.50;;;6.14;100.00
70930;BME280;58588;48.102;19.682;2023-03-26T01:51:26;98775.16;;;6.10;100.00
70930;BME280;58588;48.102;19.682;2023-03-26T01:54:30;98777.31;;;6.15;100.00
70930;BME280;58588;48.102;19.682;2023-03-26T01:57:40;98789.19;;;6.12;100.00
70930;BME280;58588;48.102;19.682;2023-03-26T02:00:51;98792.91;;;6.03;100.00
70930;BME280;58588;48.102;19.682;2023-03-26T02:04:02;98800.75;;;6.05;100.00
70930;BME280;58588;48.102;19.682;2023-03-26T02:07:07;98806.81;;;5.90;100.00
70930;BME280;58588;48.102;19.682;2023-03-26T02:10:13;98811.50;;;5.88;100.00
70930;BME280;58588;48.102;19.682;2023-03-26T02:13:18;98807.50;;;5.93;100.00
70930;BME280;58588;48.102;19.682;2023-03-26T02:16:21;98811.31;;;5.90;100.00
70930;BME280;58588;48.102;19.682;2023-03-26T02:19:23;98813.03;;;5.91;100.00
70930;BME280;58588;48.102;19.682;2023-03-26T02:22:25;98798.13;;;5.97;100.00
70930;BME280;58588;48.102;19.682;2023-03-26T02:25:29;98804.31;;;5.97;100.00
70930;BME280;58588;48.102;19.682;2023-03-26T02:28:32;98802.81;;;5.86;100.00
70930;BME280;58588;48.102;19.682;2023-03-26T02:31:34;98803.81;;;5.85;100.00
70930;BME280;58588;48.102;19.682;2023-03-26T02:34:37;98796.84;;;5.76;100.00
70930;BME280;58588;48.102;19.682;2023-03-26T02:37:39;98796.31;;;5.81;100.00
70930;BME280;58588;48.102;19.682;2023-03-26T02:40:46;98804.69;;;5.78;100.00
70930;BME280;58588;48.102;19.682;2023-03-26T02:43:49;98807.22;;;5.71;100.00
70930;BME280;58588;48.102;19.682;2023-03-26T02:46:51;98808.72;;;5.57;100.00
70930;BME280;58588;48.102;19.682;2023-03-26T02:49:53;98817.13;;;5.54;100.00
70930;BME280;58588;48.102;19.682;2023-03-26T02:52:56;98812.44;;;5.48;100.00
70930;BME280;58588;48.102;19.682;2023-03-26T02:55:59;98807.94;;;5.49;100.00
70930;BME280;58588;48.102;19.682;2023-03-26T02:59:02;98806.59;;;5.53;100.00
70930;BME280;58588;48.102;19.682;2023-03-26T03:02:04;98807.06;;;5.56;100.00
70930;BME280;58588;48.102;19.682;2023-03-26T03:05:07;98797.22;;;5.57;100.00
70930;BME280;58588;48.102;19.682;2023-03-26T03:08:09;98804.28;;;5.42;100.00
70930;BME280;58588;48.102;19.682;2023-03-26T03:11:13;98805.78;;;5.36;100.00
70930;BME280;58588;48.102;19.682;2023-03-26T03:14:17;98801.81;;;5.24;100.00
70930;BME280;58588;48.102;19.682;2023-03-26T03:17:19;98804.78;;;5.21;100.00
70930;BME280;58588;48.102;19.682;2023-03-26T03:20:21;98797.28;;;5.24;100.00
70930;BME280;58588;48.102;19.682;2023-03-26T03:23:23;98805.97;;;5.18;100.00
70930;BME280;58588;48.102;19.682;2023-03-26T03:26:25;98804.63;;;5.14;100.00
70930;BME280;58588;48.102;19.682;2023-03-26T03:29:30;98803.13;;;5.20;100.00
70930;BME280;58588;48.102;19.682;2023-03-26T03:32:33;98801.47;;;5.19;100.00
70930;BME280;58588;48.102;19.682;2023-03-26T03:35:35;98801.66;;;5.17;100.00
70930;BME280;58588;48.102;19.682;2023-03-26T03:38:37;98799.44;;;5.21;100.00
70930;BME280;58588;48.102;19.682;2023-03-26T03:41:40;98790.28;;;4.91;100.00
70930;BME280;58588;48.102;19.682;2023-03-26T03:44:44;98799.13;;;4.67;100.00
70930;BME280;58588;48.102;19.682;2023-03-26T03:47:46;98804.47;;;4.59;100.00
70930;BME280;58588;48.102;19.682;2023-03-26T03:50:48;98805.41;;;4.33;100.00
70930;BME280;58588;48.102;19.682;2023-03-26T03:53:50;98798.59;;;4.39;100.00
70930;BME280;58588;48.102;19.682;2023-03-26T03:56:53;98795.94;;;4.47;100.00
70930;BME280;58588;48.102;19.682;2023-03-26T03:59:56;98810.59;;;4.43;100.00
70930;BME280;58588;48.102;19.682;2023-03-26T04:02:59;98815.75;;;4.36;100.00
70930;BME280;58588;48.102;19.682;2023-03-26T04:06:06;98814.97;;;4.01;100.00
70930;BME280;58588;48.102;19.682;2023-03-26T04:09:10;98816.22;;;4.15;100.00
70930;BME280;58588;48.102;19.682;2023-03-26T04:12:12;98820.19;;;4.19;100.00
70930;BME280;58588;48.102;19.682;2023-03-26T04:15:16;98815.44;;;4.39;100.00
70930;BME280;58588;48.102;19.682;2023-03-26T04:18:18;98817.16;;;4.65;100.00
70930;BME280;58588;48.102;19.682;2023-03-26T04:21:21;98819.00;;;4.64;100.00
70930;BME280;58588;48.102;19.682;2023-03-26T04:24:25;98811.50;;;4.76;100.00
70930;BME280;58588;48.102;19.682;2023-03-26T04:27:29;98811.97;;;4.71;100.00
70930;BME280;58588;48.102;19.682;2023-03-26T04:30:36;98805.28;;;4.67;100.00
70930;BME280;58588;48.102;19.682;2023-03-26T04:33:43;98799.63;;;4.70;100.00
70930;BME280;58588;48.102;19.682;2023-03-26T04:36:47;98794.47;;;4.77;100.00
70930;BME280;58588;48.102;19.682;2023-03-26T04:39:49;98791.44;;;4.55;100.00
70930;BME280;58588;48.102;19.682;2023-03-26T04:42:51;98804.13;;;4.53;100.00
70930;BME280;58588;48.102;19.682;2023-03-26T04:45:59;98811.81;;;4.56;100.00
70930;BME280;58588;48.102;19.682;2023-03-26T04:49:02;98803.31;;;4.77;100.00
70930;BME280;58588;48.102;19.682;2023-03-26T04:52:04;98807.47;;;4.96;100.00
70930;BME280;58588;48.102;19.682;2023-03-26T04:55:14;98794.63;;;5.00;100.00
70930;BME280;58588;48.102;19.682;2023-03-26T04:58:18;98796.13;;;5.02;100.00
70930;BME280;58588;48.102;19.682;2023-03-26T05:01:21;98809.16;;;5.05;100.00
70930;BME280;58588;48.102;19.682;2023-03-26T05:04:24;98806.97;;;5.09;100.00
70930;BME280;58588;48.102;19.682;2023-03-26T05:07:26;98817.66;;;5.09;100.00
70930;BME280;58588;48.102;19.682;2023-03-26T05:10:28;98823.50;;;5.13;100.00
70930;BME280;58588;48.102;19.682;2023-03-26T05:13:31;98814.66;;;5.12;100.00
70930;BME280;58588;48.102;19.682;2023-03-26T05:16:35;98827.97;;;5.45;100.00
70930;BME280;58588;48.102;19.682;2023-03-26T05:19:38;98834.09;;;5.78;100.00
70930;BME280;58588;48.102;19.682;2023-03-26T05:22:41;98833.03;;;6.03;100.00
70930;BME280;58588;48.102;19.682;2023-03-26T05:25:43;98828.50;;;6.12;100.00
70930;BME280;58588;48.102;19.682;2023-03-26T05:28:46;98829.09;;;6.22;100.00
70930;BME280;58588;48.102;19.682;2023-03-26T05:31:50;98837.13;;;6.30;100.00
70930;BME280;58588;48.102;19.682;2023-03-26T05:34:52;98842.41;;;6.38;100.00
70930;BME280;58588;48.102;19.682;2023-03-26T05:37:54;98841.19;;;6.49;100.00
70930;BME280;58588;48.102;19.682;2023-03-26T05:40:57;98842.16;;;6.56;100.00
70930;BME280;58588;48.102;19.682;2023-03-26T05:44:00;98838.59;;;6.64;100.00
70930;BME280;58588;48.102;19.682;2023-03-26T05:47:03;98837.88;;;6.70;100.00
70930;BME280;58588;48.102;19.682;2023-03-26T05:50:07;98830.44;;;6.80;100.00
70930;BME280;58588;48.102;19.682;2023-03-26T05:53:09;98827.00;;;6.94;100.00
70930;BME280;58588;48.102;19.682;2023-03-26T05:56:11;98823.34;;;7.10;100.00
70930;BME280;58588;48.102;19.682;2023-03-26T05:59:13;98832.00;;;7.20;100.00
70930;BME280;58588;48.102;19.682;2023-03-26T06:02:17;98828.69;;;7.33;100.00
70930;BME280;58588;48.102;19.682;2023-03-26T06:05:19;98821.28;;;7.35;100.00
70930;BME280;58588;48.102;19.682;2023-03-26T06:08:21;98820.94;;;7.38;100.00
70930;BME280;58588;48.102;19.682;2023-03-26T06:11:23;98824.38;;;7.47;100.00
70930;BME280;58588;48.102;19.682;2023-03-26T06:14:25;98821.06;;;7.60;100.00
70930;BME280;58588;48.102;19.682;2023-03-26T06:17:29;98821.16;;;7.66;100.00
70930;BME280;58588;48.102;19.682;2023-03-26T06:20:31;98818.00;;;7.77;100.00
70930;BME280;58588;48.102;19.682;2023-03-26T06:23:33;98814.97;;;7.95;100.00
70930;BME280;58588;48.102;19.682;2023-03-26T06:26:35;98814.50;;;8.07;100.00
70930;BME280;58588;48.102;19.682;2023-03-26T06:29:37;98818.75;;;8.16;100.00
70930;BME280;58588;48.102;19.682;2023-03-26T06:32:41;98818.63;;;8.24;100.00
70930;BME280;58588;48.102;19.682;2023-03-26T06:35:43;98830.75;;;8.35;100.00
70930;BME280;58588;48.102;19.682;2023-03-26T06:38:45;98816.28;;;8.50;100.00
70930;BME280;58588;48.102;19.682;2023-03-26T06:41:47;98817.03;;;8.44;100.00
70930;BME280;58588;48.102;19.682;2023-03-26T06:44:49;98812.41;;;8.53;100.00
70930;BME280;58588;48.102;19.682;2023-03-26T06:47:53;98824.19;;;8.73;100.00
70930;BME280;58588;48.102;19.682;2023-03-26T06:50:56;98824.81;;;8.75;100.00
70930;BME280;58588;48.102;19.682;2023-03-26T06:53:58;98826.25;;;8.71;100.00
70930;BME280;58588;48.102;19.682;2023-03-26T06:57:00;98828.63;;;9.02;100.00
70930;BME280;58588;48.102;19.682;2023-03-26T07:00:02;98818.81;;;9.16;100.00
70930;BME280;58588;48.102;19.682;2023-03-26T07:03:06;98821.34;;;9.18;100.00
70930;BME280;58588;48.102;19.682;2023-03-26T07:06:10;98824.41;;;9.15;100.00
70930;BME280;58588;48.102;19.682;2023-03-26T07:09:12;98821.03;;;9.34;100.00
70930;BME280;58588;48.102;19.682;2023-03-26T07:12:14;98818.16;;;9.35;100.00
70930;BME280;58588;48.102;19.682;2023-03-26T07:15:17;98801.88;;;9.44;100.00
70930;BME280;58588;48.102;19.682;2023-03-26T07:18:20;98807.34;;;9.57;100.00
70930;BME280;58588;48.102;19.682;2023-03-26T07:21:23;98813.25;;;9.74;100.00
70930;BME280;58588;48.102;19.682;2023-03-26T07:24:26;98806.69;;;9.83;100.00
70930;BME280;58588;48.102;19.682;2023-03-26T07:27:35;98813.53;;;9.85;100.00
70930;BME280;58588;48.102;19.682;2023-03-26T07:30:46;98814.63;;;9.91;100.00
70930;BME280;58588;48.102;19.682;2023-03-26T07:33:59;98813.06;;;10.10;100.00
70930;BME280;58588;48.102;19.682;2023-03-26T07:37:08;98817.72;;;10.29;100.00
70930;BME280;58588;48.102;19.682;2023-03-26T07:40:25;98819.28;;;10.52;100.00
70930;BME280;58588;48.102;19.682;2023-03-26T07:43:39;98821.19;;;10.71;100.00
70930;BME280;58588;48.102;19.682;2023-03-26T07:46:44;98816.88;;;10.90;99.89
70930;BME280;58588;48.102;19.682;2023-03-26T07:49:51;98812.53;;;10.89;97.47
70930;BME280;58588;48.102;19.682;2023-03-26T07:52:53;98828.06;;;10.80;93.55
70930;BME280;58588;48.102;19.682;2023-03-26T07:56:01;98824.59;;;11.13;96.78
70930;BME280;58588;48.102;19.682;2023-03-26T07:59:15;98819.19;;;11.13;93.68
70930;BME280;58588;48.102;19.682;2023-03-26T08:02:36;98820.66;;;11.55;96.78
70930;BME280;58588;48.102;19.682;2023-03-26T08:05:49;98817.75;;;11.76;89.18
70930;BME280;58588;48.102;19.682;2023-03-26T08:08:59;98810.88;;;11.94;89.07
70930;BME280;58588;48.102;19.682;2023-03-26T08:12:11;98815.22;;;12.59;89.41
70930;BME280;58588;48.102;19.682;2023-03-26T08:15:23;98812.00;;;12.76;89.89
70930;BME280;58588;48.102;19.682;2023-03-26T08:18:40;98803.69;;;12.71;83.66
70930;BME280;58588;48.102;19.682;2023-03-26T08:21:49;98806.03;;;12.67;83.69
70930;BME280;58588;48.102;19.682;2023-03-26T08:25:05;98815.09;;;12.79;83.32
70930;BME280;58588;48.102;19.682;2023-03-26T08:28:21;98814.28;;;12.27;81.70
70930;BME280;58588;48.102;19.682;2023-03-26T08:31:32;98821.53;;;12.40;78.59
70930;BME280;58588;48.102;19.682;2023-03-26T08:34:35;98827.22;;;13.08;81.26
70930;BME280;58588;48.102;19.682;2023-03-26T08:37:40;98822.94;;;12.88;80.32
70930;BME280;58588;48.102;19.682;2023-03-26T08:44:47;98808.34;;;12.95;76.49
70930;BME280;58588;48.102;19.682;2023-03-26T08:52:08;98789.59;;;13.32;74.95
70930;BME280;58588;48.102;19.682;2023-03-26T08:55:42;98785.94;;;13.88;75.96
70930;BME280;58588;48.102;19.682;2023-03-26T09:06:19;98772.69;;;13.98;70.47
70930;BME280;58588;48.102;19.682;2023-03-26T09:09:52;98779.09;;;13.85;70.40
70930;BME280;58588;48.102;19.682;2023-03-26T09:13:35;98778.75;;;13.32;68.18
70930;BME280;58588;48.102;19.682;2023-03-26T09:16:55;98764.91;;;13.65;68.32
70930;BME280;58588;48.102;19.682;2023-03-26T09:20:40;98751.34;;;13.65;65.07
70930;BME280;58588;48.102;19.682;2023-03-26T09:24:19;98754.91;;;14.02;67.48
70930;BME280;58588;48.102;19.682;2023-03-26T09:27:37;98747.09;;;13.94;65.08
70930;BME280;58588;48.102;19.682;2023-03-26T09:31:06;98755.72;;;14.03;64.86
70930;BME280;58588;48.102;19.682;2023-03-26T09:34:27;98744.53;;;14.17;65.85
70930;BME280;58588;48.102;19.682;2023-03-26T09:37:39;98746.78;;;14.02;65.86
70930;BME280;58588;48.102;19.682;2023-03-26T09:40:53;98752.91;;;13.98;66.13
70930;BME280;58588;48.102;19.682;2023-03-26T09:44:52;98755.38;;;13.81;65.68
70930;BME280;58588;48.102;19.682;2023-03-26T09:48:37;98748.16;;;13.75;66.35
70930;BME280;58588;48.102;19.682;2023-03-26T09:52:08;98744.06;;;13.65;66.71
70930;BME280;58588;48.102;19.682;2023-03-26T09:55:37;98747.06;;;13.57;64.85
70930;BME280;58588;48.102;19.682;2023-03-26T09:59:03;98744.59;;;13.56;64.31
70930;BME280;58588;48.102;19.682;2023-03-26T10:02:29;98744.13;;;13.59;64.39
70930;BME280;58588;48.102;19.682;2023-03-26T10:05:46;98738.06;;;13.63;65.00
70930;BME280;58588;48.102;19.682;2023-03-26T10:09:07;98739.47;;;13.66;62.85
70930;BME280;58588;48.102;19.682;2023-03-26T10:12:18;98737.38;;;13.50;62.55
70930;BME280;58588;48.102;19.682;2023-03-26T10:15:31;98723.44;;;13.64;62.44
70930;BME280;58588;48.102;19.682;2023-03-26T10:18:45;98740.03;;;13.31;61.90
70930;BME280;58588;48.102;19.682;2023-03-26T10:21:58;98732.44;;;13.40;61.12
70930;BME280;58588;48.102;19.682;2023-03-26T10:25:22;98721.56;;;13.47;62.09
70930;BME280;58588;48.102;19.682;2023-03-26T10:28:42;98717.38;;;13.69;61.46
70930;BME280;58588;48.102;19.682;2023-03-26T10:31:51;98704.63;;;13.51;61.32
70930;BME280;58588;48.102;19.682;2023-03-26T10:35:10;98703.28;;;13.79;61.71
70930;BME280;58588;48.102;19.682;2023-03-26T10:38:23;98710.00;;;13.76;58.38
70930;BME280;58588;48.102;19.682;2023-03-26T10:41:40;98700.44;;;13.74;58.28
70930;BME280;58588;48.102;19.682;2023-03-26T10:48:39;98706.59;;;13.44;51.45
70930;BME280;58588;48.102;19.682;2023-03-26T10:51:49;98702.00;;;13.45;52.85
70930;BME280;58588;48.102;19.682;2023-03-26T10:55:17;98703.22;;;13.85;53.44
70930;BME280;58588;48.102;19.682;2023-03-26T10:58:22;98685.47;;;14.91;53.38
70930;BME280;58588;48.102;19.682;2023-03-26T11:01:34;98672.28;;;15.42;54.19
70930;BME280;58588;48.102;19.682;2023-03-26T11:04:48;98685.38;;;15.10;52.09
70930;BME280;58588;48.102;19.682;2023-03-26T11:08:02;98689.75;;;15.46;52.88
70930;BME280;58588;48.102;19.682;2023-03-26T11:11:16;98695.47;;;14.67;51.41
70930;BME280;58588;48.102;19.682;2023-03-26T11:14:24;98677.22;;;14.86;52.95
70930;BME280;58588;48.102;19.682;2023-03-26T11:17:38;98675.59;;;15.20;49.74
70930;BME280;58588;48.102;19.682;2023-03-26T11:20:48;98663.75;;;16.42;51.21
70930;BME280;58588;48.102;19.682;2023-03-26T11:24:02;98661.53;;;16.39;50.12
70930;BME280;58588;48.102;19.682;2023-03-26T11:27:13;98645.59;;;16.76;49.12
70930;BME280;58588;48.102;19.682;2023-03-26T11:30:28;98646.13;;;16.45;49.38
70930;BME280;58588;48.102;19.682;2023-03-26T11:33:37;98639.63;;;17.30;50.21
70930;BME280;58588;48.102;19.682;2023-03-26T11:36:45;98633.00;;;16.87;47.90
70930;BME280;58588;48.102;19.682;2023-03-26T11:39:49;98630.50;;;16.23;49.65
70930;BME280;58588;48.102;19.682;2023-03-26T11:42:59;98626.16;;;15.82;48.72
70930;BME280;58588;48.102;19.682;2023-03-26T11:46:07;98612.03;;;15.68;48.52
70930;BME280;58588;48.102;19.682;2023-03-26T11:49:13;98612.41;;;16.46;47.49
70930;BME280;58588;48.102;19.682;2023-03-26T11:52:17;98607.31;;;16.49;46.34
70930;BME280;58588;48.102;19.682;2023-03-26T11:55:19;98614.34;;;16.79;46.44
70930;BME280;58588;48.102;19.682;2023-03-26T11:58:28;98612.25;;;16.52;45.49
70930;BME280;58588;48.102;19.682;2023-03-26T12:01:48;98598.25;;;16.77;45.04
70930;BME280;58588;48.102;19.682;2023-03-26T12:05:04;98587.66;;;17.15;46.38
70930;BME280;58588;48.102;19.682;2023-03-26T12:08:33;98592.25;;;17.53;43.99
70930;BME280;58588;48.102;19.682;2023-03-26T13:02:00;98492.38;;;16.25;47.27
70930;BME280;58588;48.102;19.682;2023-03-26T13:05:20;98494.00;;;16.60;46.58
70930;BME280;58588;48.102;19.682;2023-03-26T13:12:11;98478.53;;;16.44;49.07
70930;BME280;58588;48.102;19.682;2023-03-26T13:15:24;98482.72;;;16.51;48.34
70930;BME280;58588;48.102;19.682;2023-03-26T13:18:40;98478.00;;;16.80;45.75
70930;BME280;58588;48.102;19.682;2023-03-26T13:21:56;98473.38;;;16.81;47.12
70930;BME280;58588;48.102;19.682;2023-03-26T13:25:07;98459.31;;;16.89;46.88
70930;BME280;58588;48.102;19.682;2023-03-26T13:28:24;98456.97;;;16.76;44.99
70930;BME280;58588;48.102;19.682;2023-03-26T13:31:33;98444.03;;;17.32;45.36
70930;BME280;58588;48.102;19.682;2023-03-26T13:34:55;98435.19;;;17.96;44.60
70930;BME280;58588;48.102;19.682;2023-03-26T13:38:04;98433.28;;;17.96;43.95
70930;BME280;58588;48.102;19.682;2023-03-26T13:41:18;98438.38;;;17.33;45.30
70930;BME280;58588;48.102;19.682;2023-03-26T13:44:31;98425.59;;;17.66;44.68
70930;BME280;58588;48.102;19.682;2023-03-26T13:47:38;98425.56;;;17.61;44.35
70930;BME280;58588;48.102;19.682;2023-03-26T13:50:50;98428.69;;;17.48;44.51
70930;BME280;58588;48.102;19.682;2023-03-26T13:53:59;98420.13;;;16.90;43.88
70930;BME280;58588;48.102;19.682;2023-03-26T13:57:08;98419.75;;;16.81;46.54
70930;BME280;58588;48.102;19.682;2023-03-26T14:00:21;98421.41;;;16.66;48.52
70930;BME280;58588;48.102;19.682;2023-03-26T14:03:40;98410.81;;;16.25;47.67
70930;BME280;58588;48.102;19.682;2023-03-26T14:06:48;98414.78;;;15.84;46.59
70930;BME280;58588;48.102;19.682;2023-03-26T14:09:59;98414.44;;;15.97;46.79
70930;BME280;58588;48.102;19.682;2023-03-26T14:13:06;98420.28;;;16.06;47.03
70930;BME280;58588;48.102;19.682;2023-03-26T14:16:14;98413.09;;;16.33;48.38
70930;BME280;58588;48.102;19.682;2023-03-26T14:19:31;98410.38;;;16.33;49.32
70930;BME280;58588;48.102;19.682;2023-03-26T14:22:47;98406.56;;;16.35;47.59
70930;BME280;58588;48.102;19.682;2023-03-26T14:26:06;98409.19;;;16.46;47.53
70930;BME280;58588;48.102;19.682;2023-03-26T14:29:27;98402.09;;;16.84;46.78
70930;BME280;58588;48.102;19.682;2023-03-26T14:32:39;98403.09;;;17.00;47.34
70930;BME280;58588;48.102;19.682;2023-03-26T14:35:51;98405.06;;;16.82;46.96
70930;BME280;58588;48.102;19.682;2023-03-26T14:39:18;98390.66;;;16.65;46.72
70930;BME280;58588;48.102;19.682;2023-03-26T14:42:36;98390.03;;;16.58;46.92
70930;BME280;58588;48.102;19.682;2023-03-26T14:46:04;98383.91;;;16.68;47.06
70930;BME280;58588;48.102;19.682;2023-03-26T14:52:45;98375.03;;;17.48;44.88
70930;BME280;58588;48.102;19.682;2023-03-26T14:56:13;98368.50;;;17.22;43.46
70930;BME280;58588;48.102;19.682;2023-03-26T14:59:43;98354.31;;;17.20;42.98
70930;BME280;58588;48.102;19.682;2023-03-26T15:07:27;98347.78;;;16.72;44.65
70930;BME280;58588;48.102;19.682;2023-03-26T15:11:11;98344.84;;;16.79;45.72
70930;BME280;58588;48.102;19.682;2023-03-26T15:14:41;98337.19;;;16.54;47.20
70930;BME280;58588;48.102;19.682;2023-03-26T15:18:12;98332.44;;;16.44;48.32
70930;BME280;58588;48.102;19.682;2023-03-26T15:25:16;98319.28;;;16.36;48.03
70930;BME280;58588;48.102;19.682;2023-03-26T15:28:53;98311.56;;;16.28;47.13
70930;BME280;58588;48.102;19.682;2023-03-26T15:32:21;98305.09;;;16.34;50.40
70930;BME280;58588;48.102;19.682;2023-03-26T15:35:50;98289.47;;;16.68;46.33
70930;BME280;58588;48.102;19.682;2023-03-26T15:39:29;98280.47;;;19.37;40.01
70930;BME280;58588;48.102;19.682;2023-03-26T15:42:47;98287.94;;;21.85;37.24
70930;BME280;58588;48.102;19.682;2023-03-26T15:46:22;98284.84;;;22.68;32.39
70930;BME280;58588;48.102;19.682;2023-03-26T15:49:34;98271.56;;;24.44;33.84
70930;BME280;58588;48.102;19.682;2023-03-26T15:52:44;98266.31;;;24.01;30.36
70930;BME280;58588;48.102;19.682;2023-03-26T15:56:06;98263.72;;;23.77;30.20
70930;BME280;58588;48.102;19.682;2023-03-26T15:59:22;98260.38;;;24.76;30.26
70930;BME280;58588;48.102;19.682;2023-03-26T16:02:38;98250.41;;;22.95;29.64
70930;BME280;58588;48.102;19.682;2023-03-26T16:09:44;98252.53;;;20.16;35.58
70930;BME280;58588;48.102;19.682;2023-03-26T16:16:48;98234.72;;;17.88;41.60
70930;BME280;58588;48.102;19.682;2023-03-26T16:20:18;98223.09;;;17.28;43.68
70930;BME280;58588;48.102;19.682;2023-03-26T16:23:28;98212.16;;;16.91;42.87
70930;BME280;58588;48.102;19.682;2023-03-26T16:26:36;98201.97;;;16.54;45.28
70930;BME280;58588;48.102;19.682;2023-03-26T16:33:34;98207.25;;;15.73;47.86
70930;BME280;58588;48.102;19.682;2023-03-26T16:36:42;98199.63;;;15.53;49.11
70930;BME280;58588;48.102;19.682;2023-03-26T16:39:45;98197.22;;;15.40;47.75
70930;BME280;58588;48.102;19.682;2023-03-26T16:42:50;98197.56;;;15.27;50.05
70930;BME280;58588;48.102;19.682;2023-03-26T16:46:01;98201.94;;;15.11;49.71
70930;BME280;58588;48.102;19.682;2023-03-26T16:49:14;98204.75;;;14.99;51.12
70930;BME280;58588;48.102;19.682;2023-03-26T16:52:29;98199.13;;;14.72;54.58
70930;BME280;58588;48.102;19.682;2023-03-26T16:55:38;98196.41;;;14.44;58.13
70930;BME280;58588;48.102;19.682;2023-03-26T16:58:52;98192.97;;;14.20;54.15
70930;BME280;58588;48.102;19.682;2023-03-26T17:01:58;98193.25;;;14.07;57.90
70930;BME280;58588;48.102;19.682;2023-03-26T17:05:16;98189.84;;;14.00;57.66
70930;BME280;58588;48.102;19.682;2023-03-26T17:08:28;98195.66;;;13.91;60.54
70930;BME280;58588;48.102;19.682;2023-03-26T17:11:45;98208.50;;;13.73;61.78
70930;BME280;58588;48.102;19.682;2023-03-26T17:14:58;98204.28;;;13.53;61.28
70930;BME280;58588;48.102;19.682;2023-03-26T17:18:19;98194.41;;;13.59;59.52
70930;BME280;58588;48.102;19.682;2023-03-26T17:21:33;98203.13;;;13.49;60.32
70930;BME280;58588;48.102;19.682;2023-03-26T17:24:45;98195.13;;;13.43;61.41
70930;BME280;58588;48.102;19.682;2023-03-26T17:27:58;98189.91;;;13.18;59.16
70930;BME280;58588;48.102;19.682;2023-03-26T17:31:15;98202.50;;;13.12;57.39
70930;BME280;58588;48.102;19.682;2023-03-26T17:34:53;98193.09;;;13.15;58.07
70930;BME280;58588;48.102;19.682;2023-03-26T17:37:56;98193.69;;;13.17;59.75
70930;BME280;58588;48.102;19.682;2023-03-26T17:41:00;98197.38;;;13.22;59.36
70930;BME280;58588;48.102;19.682;2023-03-26T17:44:34;98195.19;;;13.12;57.85
70930;BME280;58588;48.102;19.682;2023-03-26T17:47:39;98198.94;;;13.00;58.08
70930;BME280;58588;48.102;19.682;2023-03-26T17:50:49;98193.06;;;12.79;58.43
70930;BME280;58588;48.102;19.682;2023-03-26T17:53:51;98192.41;;;12.54;63.59
70930;BME280;58588;48.102;19.682;2023-03-26T17:57:03;98194.34;;;12.47;62.52
70930;BME280;58588;48.102;19.682;2023-03-26T18:00:14;98186.44;;;12.33;62.36
70930;BME280;58588;48.102;19.682;2023-03-26T18:03:19;98191.22;;;12.20;63.10
70930;BME280;58588;48.102;19.682;2023-03-26T18:06:36;98190.63;;;11.99;64.99
70930;BME280;58588;48.102;19.682;2023-03-26T18:09:52;98201.41;;;11.88;63.21
70930;BME280;58588;48.102;19.682;2023-03-26T18:13:10;98205.94;;;11.87;63.67